Time;durP1;ratioP1;P1;durP2;ratioP2;P2;SDS_P1;SDS_P2;PMS_P1;PMS_P2;Temp;Humidity;BMP_temperature;BMP_pressure;BME280_temperature;BME280_humidity;BME280_pressure;Samples;Min_cycle;Max_cycle;Signal;HPM_P1;HPM_P2
2023/04/12 00:00:49;;;;;;;6.20;3.20;;;;;;;12.70;77.36;98342.41;78152;1295;3050645;-61
2023/04/12 00:03:19;;;;;;;9.90;3.40;;;;;;;12.56;77.80;98339.38;79464;1295;3013182;-61
2023/04/12 00:05:47;;;;;;;3.80;2.20;;;;;;;12.43;78.28;98338.52;78167;1300;3049499;-62
2023/04/12 00:08:32;;;;;;;7.20;2.70;;;;;;;12.95;77.12;98338.42;79456;1296;3011499;-61
2023/04/12 00:11:01;;;;;;;9.50;3.20;;;;;;;13.38;74.60;98329.73;80737;1295;3049986;-61
2023/04/12 00:13:28;;;;;;;4.90;2.90;;;;;;;13.37;74.79;98329.48;82044;1294;3011342;-61
2023/04/12 00:15:58;;;;;;;5.30;3.30;;;;;;;13.21;74.84;98332.83;80798;1295;3067233;-63
2023/04/12 00:18:26;;;;;;;7.50;3.70;;;;;;;12.94;75.88;98335.32;82018;1294;3012306;-63
2023/04/12 00:20:54;;;;;;;8.90;3.70;;;;;;;12.81;76.25;98335.14;82067;1295;3011398;-62
2023/04/12 00:23:25;;;;;;;5.50;3.40;;;;;;;12.65;76.96;98330.17;80763;1295;3053783;-62
2023/04/12 00:25:53;;;;;;;10.10;3.30;;;;;;;12.58;77.50;98329.54;82033;1299;3012953;-61
2023/04/12 00:28:19;;;;;;;7.50;3.60;;;;;;;12.48;77.55;98329.65;82060;1295;3011315;-60
2023/04/12 00:30:48;;;;;;;6.40;3.80;;;;;;;12.42;77.32;98323.89;80782;1294;3068850;-63
2023/04/12 00:33:15;;;;;;;9.40;3.50;;;;;;;12.31;77.29;98320.46;82074;1295;3012972;-61
2023/04/12 00:35:42;;;;;;;4.70;2.10;;;;;;;12.30;77.69;98318.78;82045;1295;3011589;-61
2023/04/12 00:38:10;;;;;;;5.00;2.40;;;;;;;12.86;75.89;98315.63;80757;1295;3052833;-63
2023/04/12 00:40:41;;;;;;;5.40;2.50;;;;;;;13.36;74.07;98304.52;81980;1298;3013139;-63
2023/04/12 00:43:14;;;;;;;8.30;2.80;;;;;;;13.32;73.63;98306.61;80783;1298;3051335;-60
2023/04/12 00:45:41;;;;;;;;;;;;;;;13.26;73.72;98303.28;82050;1295;3011119;-60
2023/04/12 00:48:14;;;;;;;9.60;3.10;;;;;;;13.05;74.12;98302.04;80797;1294;3050613;-61
2023/04/12 00:50:43;;;;;;;8.60;3.40;;;;;;;12.65;75.49;98307.45;82043;1294;3012988;-63
2023/04/12 00:53:12;;;;;;;7.40;3.10;;;;;;;12.48;76.58;98308.23;81417;1295;3011343;-59
2023/04/12 00:55:43;;;;;;;6.80;3.30;;;;;;;12.35;76.93;98304.30;81995;1295;3011171;-62
2023/04/12 00:58:13;;;;;;;7.60;3.00;;;;;;;12.18;77.67;98305.58;80701;1295;3026249;-60
2023/04/12 01:00:39;;;;;;;5.60;3.10;;;;;;;12.10;77.50;98295.67;81962;1295;3011297;-62
2023/04/12 01:03:12;;;;;;;7.00;2.70;;;;;;;11.97;78.57;98296.25;81497;1295;3011128;-61
2023/04/12 01:05:59;;;;;;;3.60;1.80;;;;;;;11.82;79.74;98292.61;82043;1295;3011367;-62
2023/04/12 01:08:52;;;;;;;8.30;2.30;;;;;;;12.38;78.05;98290.89;80778;1295;3050243;-65
2023/04/12 01:11:30;;;;;;;3.70;2.60;;;;;;;12.77;76.50;98287.79;80726;1295;3056331;-60
2023/04/12 01:14:27;;;;;;;6.00;3.00;;;;;;;12.90;75.86;98281.71;80726;1301;3048836;-62
2023/04/12 01:16:57;;;;;;;6.90;2.90;;;;;;;12.66;75.89;98280.50;80729;1296;3053221;-64
2023/04/12 01:19:32;;;;;;;6.40;2.80;;;;;;;12.52;76.50;98276.66;81885;1295;3011500;-62
2023/04/12 01:22:18;;;;;;;7.10;3.10;;;;;;;12.36;77.21;98276.48;80706;1301;3052451;-63
2023/04/12 01:25:08;;;;;;;7.20;2.70;;;;;;;12.13;77.97;98270.05;80708;1298;3051556;-60
2023/04/12 01:27:41;;;;;;;5.10;2.70;;;;;;;11.92;78.84;98268.96;80790;1295;3069490;-60
2023/04/12 01:30:07;;;;;;;9.70;2.90;;;;;;;11.73;80.04;98268.07;82018;1295;3011316;-65
2023/04/12 01:32:36;;;;;;;4.80;1.50;;;;;;;11.75;80.07;98266.34;80749;1295;3025711;-63
2023/04/12 01:35:06;;;;;;;5.40;1.70;;;;;;;12.30;78.23;98261.73;81923;1295;3011262;-63
2023/04/12 01:37:35;;;;;;;3.20;1.70;;;;;;;12.86;76.46;98251.19;80619;1295;3050898;-60
2023/04/12 01:40:04;;;;;;;8.20;2.50;;;;;;;12.86;75.58;98250.12;82052;1301;3018849;-60
2023/04/12 01:42:31;;;;;;;4.50;2.50;;;;;;;12.60;76.42;98251.20;82014;1298;3011230;-58
2023/04/12 01:45:00;;;;;;;3.70;2.20;;;;;;;12.42;76.91;98243.80;80762;1296;3050008;-62
2023/04/12 01:47:26;;;;;;;8.10;2.50;;;;;;;12.27;77.14;98245.45;82072;1295;3013224;-61
2023/04/12 01:50:17;;;;;;;8.70;3.20;;;;;;;12.06;78.43;98246.23;82044;1295;3011449;-61
2023/04/12 01:52:51;;;;;;;8.30;2.50;;;;;;;11.79;79.90;98235.17;80777;1296;3049815;-61
2023/04/12 01:55:21;;;;;;;7.40;2.90;;;;;;;11.70;80.06;98240.98;81500;1295;3011470;-61
2023/04/12 01:57:48;;;;;;;2.70;1.40;;;;;;;11.54;81.05;98238.11;81908;1298;3012397;-62
2023/04/12 02:00:16;;;;;;;5.60;1.70;;;;;;;12.06;79.89;98236.18;81960;1301;3011213;-60
2023/04/12 02:02:46;;;;;;;5.70;1.90;;;;;;;12.49;77.48;98235.95;80781;1295;3051398;-60
2023/04/12 02:05:13;;;;;;;4.50;2.70;;;;;;;12.43;77.01;98236.49;82045;1295;3011321;-62
2023/04/12 02:07:40;;;;;;;6.60;2.40;;;;;;;12.46;77.29;98230.10;82048;1295;3011425;-60
2023/04/12 02:10:14;;;;;;;8.30;2.40;;;;;;;12.21;77.56;98229.82;80654;1298;3049872;-60
2023/04/12 02:12:41;;;;;;;5.20;2.30;;;;;;;12.03;78.42;98224.55;82048;1300;3012405;-61
2023/04/12 02:15:07;;;;;;;5.80;2.40;;;;;;;11.85;79.19;98226.91;82055;1298;3011307;-61
2023/04/12 02:17:37;;;;;;;5.60;2.30;;;;;;;11.82;79.21;98223.30;80820;1295;3050797;-61
2023/04/12 02:20:10;;;;;;;7.50;2.90;;;;;;;11.63;80.35;98222.33;82023;1295;3012579;-62
2023/04/12 02:22:38;;;;;;;6.20;1.60;;;;;;;11.51;81.32;98219.79;80739;1296;3052168;-63
2023/04/12 02:25:07;;;;;;;4.90;2.30;;;;;;;12.07;80.03;98219.83;82016;1294;3012739;-62
2023/04/12 02:27:34;;;;;;;5.30;2.50;;;;;;;12.57;77.68;98213.89;82089;1295;3011291;-61
2023/04/12 02:30:03;;;;;;;5.30;2.40;;;;;;;12.65;76.94;98215.61;80750;1296;3069361;-62
2023/04/12 02:32:42;;;;;;;;;;;;;;;12.63;76.64;98206.33;82009;1296;3011189;-61
2023/04/12 02:35:12;;;;;;;4.60;2.00;;;;;;;12.44;77.03;98204.48;80737;1295;3056377;-62
2023/04/12 02:37:39;;;;;;;8.20;2.70;;;;;;;12.29;77.55;98204.38;82012;1296;3010986;-59
2023/04/12 02:40:09;;;;;;;13.10;3.30;;;;;;;12.09;78.06;98204.21;82006;1295;3011389;-60
2023/04/12 02:42:38;;;;;;;7.50;2.70;;;;;;;11.88;78.39;98200.85;80725;1299;3051633;-61
2023/04/12 02:45:06;;;;;;;4.80;2.60;;;;;;;11.74;79.24;98201.75;82024;1296;3011255;-61
2023/04/12 02:47:40;;;;;;;7.70;3.10;;;;;;;11.71;79.59;98196.16;80791;1298;3051085;-62
2023/04/12 02:50:07;;;;;;;3.10;1.80;;;;;;;11.64;80.04;98194.63;82063;1295;3012324;-60
2023/04/12 02:52:41;;;;;;;5.60;2.10;;;;;;;12.19;78.93;98202.24;80742;1301;3052009;-62
2023/04/12 02:55:10;;;;;;;5.40;2.70;;;;;;;12.72;76.54;98188.66;81915;1296;3011205;-61
2023/04/12 02:57:36;;;;;;;8.10;2.80;;;;;;;12.78;75.32;98188.09;82017;1299;3011459;-60
2023/04/12 03:00:12;;;;;;;5.30;2.60;;;;;;;12.64;75.36;98193.03;80751;1298;3068711;-62
2023/04/12 03:02:48;;;;;;;8.50;2.90;;;;;;;12.50;75.94;98187.07;80733;1294;3050650;-61
2023/04/12 03:05:19;;;;;;;7.40;3.10;;;;;;;12.27;76.59;98191.40;82000;1295;3011161;-60
2023/04/12 03:07:51;;;;;;;6.30;3.00;;;;;;;12.15;77.09;98192.61;80833;1295;3049095;-62
2023/04/12 03:10:20;;;;;;;8.60;3.20;;;;;;;12.02;77.57;98189.87;82030;1295;3011361;-60
2023/04/12 03:12:54;;;;;;;5.60;3.30;;;;;;;11.93;78.01;98189.59;80746;1301;3050263;-63
2023/04/12 03:15:22;;;;;;;6.90;3.10;;;;;;;11.82;78.30;98189.98;82045;1298;3012980;-61
2023/04/12 03:17:52;;;;;;;4.80;2.60;;;;;;;11.78;78.39;98186.46;81482;1301;3011324;-62
2023/04/12 03:20:23;;;;;;;4.10;2.30;;;;;;;12.17;77.58;98192.41;81995;1300;3011373;-62
2023/04/12 03:23:09;;;;;;;4.70;2.10;;;;;;;12.73;75.61;98186.11;80724;1295;3051983;-60
2023/04/12 03:25:40;;;;;;;3.70;2.30;;;;;;;12.88;75.22;98184.34;82080;1294;3011254;-62
2023/04/12 03:28:29;;;;;;;7.60;2.50;;;;;;;12.71;74.90;98181.89;80812;1298;3048837;-60
2023/04/12 03:30:57;;;;;;;6.10;3.10;;;;;;;12.50;75.43;98182.16;82062;1294;3011887;-59
2023/04/12 03:33:27;;;;;;;4.60;2.70;;;;;;;12.34;75.82;98184.48;80783;1298;3026749;-62
2023/04/12 03:36:00;;;;;;;5.70;3.00;;;;;;;12.10;76.75;98188.84;82043;1296;3011292;-61
2023/04/12 03:38:28;;;;;;;8.60;3.00;;;;;;;11.94;77.64;98189.83;80787;1295;3053466;-60
2023/04/12 03:40:55;;;;;;;5.70;2.90;;;;;;;11.85;78.00;98190.91;82023;1295;3012489;-59
2023/04/12 03:43:34;;;;;;;7.20;2.90;;;;;;;11.68;78.44;98192.74;80766;1296;3055234;-61
2023/04/12 03:46:05;;;;;;;3.70;1.80;;;;;;;11.52;79.43;98191.95;81499;1295;3011421;-61
2023/04/12 03:48:32;;;;;;;6.20;2.30;;;;;;;12.11;77.96;98195.73;82035;1296;3012650;-62
2023/04/12 03:50:59;;;;;;;7.30;2.60;;;;;;;12.60;76.11;98186.02;82081;1295;3011308;-60
2023/04/12 03:53:29;;;;;;;7.20;2.30;;;;;;;12.77;75.19;98192.25;80741;1298;3050449;-60
2023/04/12 03:55:56;;;;;;;4.40;2.40;;;;;;;12.58;75.38;98185.00;82086;1296;3012644;-62
2023/04/12 03:58:32;;;;;;;6.00;2.70;;;;;;;12.43;75.02;98185.25;80786;1295;3069197;-62
2023/04/12 04:01:04;;;;;;;4.10;2.40;;;;;;;12.07;76.14;98193.41;82044;1296;3011116;-61
2023/04/12 04:03:33;;;;;;;6.90;2.80;;;;;;;11.80;77.09;98195.01;80685;1294;3056059;-59
2023/04/12 04:06:25;;;;;;;8.70;2.60;;;;;;;11.74;77.61;98192.95;80748;1295;3050264;-60
2023/04/12 04:08:56;;;;;;;5.80;2.10;;;;;;;11.59;78.47;98200.54;82015;1295;3011551;-62
2023/04/12 04:11:24;;;;;;;5.80;2.70;;;;;;;11.52;79.23;98195.35;80723;1295;3026960;-61
2023/04/12 04:13:54;;;;;;;3.60;1.50;;;;;;;11.28;79.80;98190.15;82028;1295;3011217;-61
2023/04/12 04:16:23;;;;;;;16.10;1.90;;;;;;;11.82;79.02;98195.08;80782;1295;3026599;-60
2023/04/12 04:18:50;;;;;;;5.80;2.00;;;;;;;12.41;76.73;98193.02;82015;1296;3018096;-62
2023/04/12 04:21:18;;;;;;;4.20;2.50;;;;;;;12.34;75.16;98197.45;82046;1296;3011412;-62
2023/04/12 04:23:47;;;;;;;5.50;2.30;;;;;;;12.23;75.70;98196.30;80760;1294;3048882;-61
2023/04/12 04:26:19;;;;;;;;;;;;;;;12.02;76.62;98197.05;82056;1294;3011389;-60
2023/04/12 04:29:00;;;;;;;5.80;2.50;;;;;;;11.86;77.51;98194.84;80739;1296;3051775;-61
2023/04/12 04:31:33;;;;;;;4.50;2.70;;;;;;;11.69;78.41;98194.77;81991;1295;3011155;-61
2023/04/12 04:34:02;;;;;;;3.10;2.30;;;;;;;11.53;79.59;98195.60;80786;1301;3052702;-61
2023/04/12 04:36:34;;;;;;;4.40;2.60;;;;;;;11.46;79.96;98192.66;82065;1298;3010948;-61
2023/04/12 04:39:16;;;;;;;4.10;1.50;;;;;;;11.47;80.60;98194.35;80797;1295;3051607;-63
2023/04/12 04:41:45;;;;;;;3.20;1.80;;;;;;;12.01;79.22;98193.64;82006;1295;3011446;-64
2023/04/12 04:44:34;;;;;;;6.20;2.30;;;;;;;12.52;77.03;98189.59;80721;1295;3051820;-61
2023/04/12 04:47:03;;;;;;;6.30;2.50;;;;;;;12.52;76.70;98186.05;82032;1301;3013350;-62
2023/04/12 04:49:35;;;;;;;8.40;2.70;;;;;;;12.26;77.61;98191.84;80800;1298;3051759;-61
2023/04/12 04:52:08;;;;;;;5.70;2.80;;;;;;;12.14;78.26;98189.33;82013;1295;3012139;-60
2023/04/12 04:54:36;;;;;;;8.80;3.10;;;;;;;12.02;78.66;98193.56;80728;1296;3051569;-62
2023/04/12 04:57:06;;;;;;;7.00;3.00;;;;;;;11.85;79.58;98192.20;82021;1295;3012709;-61
2023/04/12 04:59:35;;;;;;;6.70;3.30;;;;;;;11.69;80.29;98190.41;80719;1295;3051575;-60
2023/04/12 05:02:15;;;;;;;11.50;3.50;;;;;;;11.53;81.19;98192.99;80761;1295;3049943;-61
2023/04/12 05:04:50;;;;;;;4.10;1.90;;;;;;;11.40;81.95;98194.59;80783;1300;3051645;-63
2023/04/12 05:07:18;;;;;;;4.40;2.10;;;;;;;11.89;80.74;98189.75;82026;1298;3012522;-62
2023/04/12 05:09:48;;;;;;;4.60;2.30;;;;;;;12.48;77.95;98186.02;81487;1295;3011293;-61
2023/04/12 05:12:20;;;;;;;6.30;2.60;;;;;;;12.60;77.36;98187.54;82003;1294;3011569;-61
2023/04/12 05:14:51;;;;;;;4.70;2.50;;;;;;;12.46;77.43;98188.50;80785;1295;3056941;-61
2023/04/12 05:17:18;;;;;;;9.90;3.10;;;;;;;12.23;78.22;98194.69;82048;1295;3012591;-60
2023/04/12 05:19:45;;;;;;;4.90;3.10;;;;;;;11.93;79.57;98191.52;82077;1295;3011312;-63
2023/04/12 05:22:13;;;;;;;7.10;3.10;;;;;;;11.84;80.43;98187.47;80728;1298;3026419;-64
2023/04/12 05:24:39;;;;;;;7.80;2.90;;;;;;;11.69;80.98;98184.95;82024;1295;3012809;-62
2023/04/12 05:27:07;;;;;;;9.00;2.80;;;;;;;11.54;82.14;98187.98;82084;1295;3011451;-63
2023/04/12 05:29:35;;;;;;;5.20;1.70;;;;;;;11.53;82.65;98183.98;80732;1295;3055083;-63
2023/04/12 05:32:02;;;;;;;4.30;2.20;;;;;;;12.14;81.21;98184.78;81988;1298;3012781;-62
2023/04/12 05:34:29;;;;;;;5.30;2.50;;;;;;;12.52;78.97;98177.45;82008;1296;3011043;-62
2023/04/12 05:36:58;;;;;;;6.60;2.50;;;;;;;12.53;79.32;98175.98;80831;1295;3026714;-61
2023/04/12 05:39:27;;;;;;;9.50;2.80;;;;;;;12.40;79.87;98173.40;82064;1295;3011334;-62
2023/04/12 05:41:55;;;;;;;5.50;2.70;;;;;;;12.34;80.20;98176.58;80840;1295;3026012;-61
2023/04/12 05:44:25;;;;;;;7.40;2.60;;;;;;;12.21;80.61;98178.61;82027;1295;3011193;-62
2023/04/12 05:46:54;;;;;;;5.40;2.80;;;;;;;12.01;81.74;98175.52;80780;1295;3025230;-62
2023/04/12 05:49:22;;;;;;;9.30;2.80;;;;;;;11.86;82.74;98178.59;82003;1295;3013629;-61
2023/04/12 05:51:53;;;;;;;6.20;1.60;;;;;;;11.74;83.44;98172.39;81488;1295;3011240;-63
2023/04/12 05:54:21;;;;;;;5.60;1.80;;;;;;;12.22;82.25;98167.97;82034;1298;3012474;-64
2023/04/12 05:56:49;;;;;;;4.60;1.80;;;;;;;12.63;80.23;98166.59;82085;1295;3011485;-62
2023/04/12 05:59:21;;;;;;;5.50;2.20;;;;;;;12.75;79.35;98162.89;80835;1295;3068787;-61
2023/04/12 06:01:48;;;;;;;7.20;2.70;;;;;;;12.64;79.36;98163.67;82020;1295;3012953;-65
2023/04/12 06:04:19;;;;;;;11.10;2.70;;;;;;;12.40;80.34;98161.98;81502;1295;3011531;-60
2023/04/12 06:06:51;;;;;;;5.70;2.40;;;;;;;12.36;81.06;98160.21;82103;1294;3011200;-59
2023/04/12 06:09:19;;;;;;;10.60;2.70;;;;;;;12.11;81.68;98167.72;80852;1295;3053086;-60
2023/04/12 06:11:46;;;;;;;7.90;2.40;;;;;;;11.97;82.42;98166.31;82131;1295;3012531;-59
2023/04/12 06:14:19;;;;;;;4.80;1.50;;;;;;;11.86;82.94;98163.84;80835;1298;3052014;-59
2023/04/12 06:16:46;;;;;;;3.70;1.50;;;;;;;12.38;81.84;98161.97;82055;1301;3013013;-61
2023/04/12 06:19:13;;;;;;;6.10;2.70;;;;;;;12.75;79.52;98160.42;82104;1293;3011241;-60
2023/04/12 06:21:43;;;;;;;5.60;2.40;;;;;;;12.81;79.28;98158.67;80773;1301;3050076;-60
2023/04/12 06:24:10;;;;;;;9.20;2.70;;;;;;;12.68;79.12;98156.88;82008;1295;3012661;-60
2023/04/12 06:26:37;;;;;;;9.40;3.50;;;;;;;12.57;79.65;98159.98;81995;1295;3011466;-59
2023/04/12 06:29:05;;;;;;;7.30;2.80;;;;;;;12.36;80.19;98160.95;80760;1295;3052733;-59
2023/04/12 06:31:32;;;;;;;6.80;3.30;;;;;;;12.21;81.19;98160.25;82057;1295;3011209;-60
2023/04/12 06:33:59;;;;;;;10.70;2.70;;;;;;;12.08;81.60;98161.25;82038;1295;3011531;-60
2023/04/12 06:36:28;;;;;;;3.00;1.80;;;;;;;12.02;81.48;98164.27;80764;1295;3048597;-59
2023/04/12 06:38:54;;;;;;;4.20;2.00;;;;;;;12.27;81.11;98165.35;82057;1294;3012326;-59
2023/04/12 06:41:21;;;;;;;6.60;2.50;;;;;;;12.78;79.65;98158.73;82049;1295;3011452;-59
2023/04/12 06:43:59;;;;;;;8.40;2.60;;;;;;;12.89;79.03;98151.60;80806;1295;3052230;-59
2023/04/12 06:46:34;;;;;;;7.00;2.50;;;;;;;12.76;79.10;98153.36;81564;1294;3011361;-60
2023/04/12 06:49:01;;;;;;;5.30;2.80;;;;;;;12.62;79.81;98156.50;82104;1295;3018459;-58
2023/04/12 06:51:28;;;;;;;5.80;2.60;;;;;;;12.36;80.90;98157.42;82059;1294;3011148;-60
2023/04/12 06:53:58;;;;;;;6.10;2.50;;;;;;;12.20;81.61;98158.32;80816;1295;3048931;-60
2023/04/12 06:56:24;;;;;;;7.50;3.40;;;;;;;12.04;82.75;98164.40;82073;1294;3018801;-59
2023/04/12 06:58:51;;;;;;;6.50;1.80;;;;;;;12.02;83.02;98164.98;82082;1293;3010888;-58
2023/04/12 07:01:19;;;;;;;7.20;1.80;;;;;;;12.45;82.11;98158.88;80794;1295;3026383;-60
2023/04/12 07:03:46;;;;;;;5.70;2.40;;;;;;;12.94;80.19;98155.87;82078;1295;3010975;-60
2023/04/12 07:06:13;;;;;;;7.10;3.20;;;;;;;12.86;80.15;98155.77;82044;1295;3011661;-60
2023/04/12 07:08:45;;;;;;;7.80;3.10;;;;;;;12.83;80.61;98158.71;80813;1295;3047694;-60
2023/04/12 07:11:11;;;;;;;5.80;3.10;;;;;;;12.59;81.43;98155.04;82088;1294;3012767;-60
2023/04/12 07:13:48;;;;;;;7.20;2.90;;;;;;;12.30;82.28;98156.67;80846;1293;3051663;-61
2023/04/12 07:16:16;;;;;;;6.50;3.40;;;;;;;12.20;83.36;98159.88;82083;1295;3013052;-60
2023/04/12 07:18:43;;;;;;;4.00;2.20;;;;;;;12.07;84.15;98162.55;82061;1295;3011124;-61
2023/04/12 07:21:16;;;;;;;5.10;2.10;;;;;;;12.54;83.14;98154.22;80817;1295;3056617;-59
2023/04/12 07:23:43;;;;;;;7.60;3.00;;;;;;;13.02;81.03;98151.17;82053;1294;3011173;-59
2023/04/12 07:26:10;;;;;;;5.00;3.10;;;;;;;13.04;80.35;98154.48;82091;1296;3011409;-60
2023/04/12 07:28:44;;;;;;;7.20;2.90;;;;;;;12.88;80.59;98152.96;80801;1295;3052318;-60
2023/04/12 07:31:11;;;;;;;5.90;2.80;;;;;;;12.53;81.94;98156.81;82072;1295;3012778;-60
2023/04/12 07:33:37;;;;;;;6.20;3.30;;;;;;;12.37;82.74;98156.10;82096;1294;3011370;-60
2023/04/12 07:36:06;;;;;;;6.30;3.40;;;;;;;12.16;83.63;98159.72;80808;1294;3054836;-61
2023/04/12 07:38:33;;;;;;;7.70;2.30;;;;;;;11.93;85.36;98164.15;82091;1295;3012702;-61
2023/04/12 07:41:05;;;;;;;4.60;2.10;;;;;;;12.33;84.29;98159.80;80824;1294;3049519;-62
2023/04/12 07:43:33;;;;;;;7.30;2.20;;;;;;;12.63;82.42;98162.70;82102;1294;3012371;-60
2023/04/12 07:46:03;;;;;;;6.90;3.30;;;;;;;12.90;82.01;98159.23;82064;1295;3011209;-59
2023/04/12 07:48:33;;;;;;;6.20;3.40;;;;;;;12.69;81.81;98158.81;80806;1295;3051007;-61
2023/04/12 07:51:00;;;;;;;9.30;3.60;;;;;;;12.51;82.82;98158.02;82067;1298;3012383;-60
2023/04/12 07:53:27;;;;;;;8.40;3.60;;;;;;;12.32;83.74;98159.39;82064;1294;3011097;-61
2023/04/12 07:55:55;;;;;;;8.00;4.30;;;;;;;12.17;84.57;98159.26;80809;1295;3049343;-59
2023/04/12 07:58:23;;;;;;;6.30;1.80;;;;;;;12.01;85.67;98160.64;82077;1294;3013346;-63
2023/04/12 08:00:56;;;;;;;5.00;2.30;;;;;;;12.42;85.00;98160.70;80793;1295;3067664;-62
2023/04/12 08:03:23;;;;;;;3.60;2.20;;;;;;;12.92;82.64;98153.98;82101;1294;3011088;-60
2023/04/12 08:05:52;;;;;;;4.80;2.80;;;;;;;12.97;82.10;98154.98;82072;1296;3011347;-61
2023/04/12 08:08:26;;;;;;;5.00;2.60;;;;;;;12.74;82.77;98155.79;80795;1295;3053154;-62
2023/04/12 08:10:54;;;;;;;3.70;2.60;;;;;;;12.58;83.24;98153.55;82102;1294;3012696;-62
2023/04/12 08:13:21;;;;;;;5.40;2.60;;;;;;;12.43;83.86;98157.67;82066;1295;3011276;-63
2023/04/12 08:15:49;;;;;;;4.10;3.10;;;;;;;12.24;84.98;98155.84;80821;1295;3069261;-60
2023/04/12 08:18:17;;;;;;;2.90;2.00;;;;;;;12.19;85.59;98150.70;82100;1295;3012701;-60
2023/04/12 08:20:43;;;;;;;4.10;1.60;;;;;;;12.63;84.36;98152.56;82078;1295;3011485;-60
2023/04/12 08:23:17;;;;;;;4.70;2.30;;;;;;;13.15;82.31;98150.13;80842;1294;3052509;-61
2023/04/12 08:25:44;;;;;;;6.50;3.00;;;;;;;13.18;81.61;98149.31;82090;1295;3017980;-61
2023/04/12 08:28:11;;;;;;;3.90;2.90;;;;;;;13.02;81.88;98144.11;82118;1293;3011163;-62
2023/04/12 08:30:42;;;;;;;4.10;2.40;;;;;;;12.87;82.51;98149.55;80881;1295;3068113;-61
2023/04/12 08:33:10;;;;;;;5.10;2.60;;;;;;;12.63;83.46;98144.27;82111;1295;3011740;-61
2023/04/12 08:35:38;;;;;;;5.00;2.90;;;;;;;12.40;84.42;98142.17;82076;1295;3011382;-61
2023/04/12 08:38:06;;;;;;;2.10;1.10;;;;;;;12.23;85.62;98141.52;80779;1295;3051677;-61
2023/04/12 08:43:33;;;;;;;3.00;2.20;;;;;;;13.01;82.92;98134.48;79861;1301;3012985;-62
2023/04/12 08:46:00;;;;;;;4.40;2.90;;;;;;;13.12;82.36;98138.20;78816;1304;3015966;-61
2023/04/12 08:48:28;;;;;;;5.10;3.00;;;;;;;12.96;82.85;98138.54;79021;1299;3011892;-61
2023/04/12 08:50:56;;;;;;;7.20;3.00;;;;;;;12.73;83.73;98135.48;77812;1304;3052133;-60
2023/04/12 08:53:23;;;;;;;4.10;2.70;;;;;;;12.46;84.91;98139.84;79072;1298;3019007;-60
2023/04/12 08:55:50;;;;;;;4.60;2.90;;;;;;;12.29;85.83;98139.93;77375;1303;3011925;-61
2023/04/12 08:58:19;;;;;;;2.00;1.40;;;;;;;12.21;86.55;98137.67;78012;1300;3027075;-61
2023/04/12 09:00:46;;;;;;;3.50;1.90;;;;;;;12.66;85.57;98136.95;79138;1296;3013602;-60
2023/04/12 09:03:19;;;;;;;4.70;3.00;;;;;;;13.02;83.58;98135.88;78017;1300;3052014;-61
2023/04/12 09:05:46;;;;;;;5.10;3.00;;;;;;;13.08;82.98;98135.00;79284;1301;3013631;-61
2023/04/12 09:08:13;;;;;;;3.90;3.00;;;;;;;12.93;83.40;98134.01;79276;1296;3012982;-61
2023/04/12 09:10:41;;;;;;;4.00;3.10;;;;;;;12.67;84.44;98138.45;78111;1299;3057106;-61
2023/04/12 09:13:10;;;;;;;5.60;3.40;;;;;;;12.42;85.94;98138.09;79617;1298;3013586;-60
2023/04/12 09:15:48;;;;;;;5.40;3.40;;;;;;;12.24;86.70;98134.90;78737;1300;3011760;-60
2023/04/12 09:18:23;;;;;;;3.30;1.80;;;;;;;12.25;87.52;98139.97;78161;1295;3050402;-60
2023/04/12 09:20:51;;;;;;;4.80;2.10;;;;;;;12.78;85.92;98137.16;79492;1298;3013340;-62
2023/04/12 09:23:23;;;;;;;3.50;2.40;;;;;;;13.36;83.73;98135.88;79149;1295;3011678;-61
2023/04/12 09:25:52;;;;;;;3.10;2.50;;;;;;;13.28;82.63;98130.14;78321;1295;3050094;-62
2023/04/12 09:28:24;;;;;;;;;;;;;;;13.08;83.53;98127.94;79464;1298;3011487;-61
2023/04/12 09:30:53;;;;;;;4.00;2.90;;;;;;;12.76;84.78;98126.77;78225;1295;3049234;-60
2023/04/12 09:33:34;;;;;;;4.40;3.20;;;;;;;12.67;85.58;98126.92;79335;1295;3011538;-61
2023/04/12 09:36:08;;;;;;;3.30;2.80;;;;;;;12.55;86.22;98121.48;78304;1298;3050158;-61
2023/04/12 09:38:38;;;;;;;3.70;1.90;;;;;;;12.41;87.20;98123.95;79492;1298;3011994;-63
2023/04/12 09:41:18;;;;;;;2.50;1.70;;;;;;;12.96;85.85;98120.20;78148;1298;3053113;-61
2023/04/12 09:43:45;;;;;;;4.60;2.30;;;;;;;13.52;83.40;98118.43;78174;1301;3069016;-61
2023/04/12 09:46:21;;;;;;;3.70;2.70;;;;;;;13.51;82.20;98119.20;78808;1295;3011848;-59
2023/04/12 09:48:49;;;;;;;4.60;3.00;;;;;;;13.33;82.56;98110.16;79331;1295;3013075;-61
2023/04/12 09:51:27;;;;;;;5.60;3.00;;;;;;;12.97;84.03;98114.72;79401;1298;3011571;-60
2023/04/12 09:54:01;;;;;;;5.00;3.40;;;;;;;12.75;85.08;98112.16;78089;1296;3053775;-60
2023/04/12 09:56:32;;;;;;;3.80;3.20;;;;;;;12.53;86.20;98113.61;79273;1295;3013517;-60
2023/04/12 09:59:04;;;;;;;2.90;1.60;;;;;;;12.36;87.12;98110.02;78088;1295;3052582;-61
2023/04/12 10:01:37;;;;;;;3.10;2.10;;;;;;;12.79;86.18;98105.40;79405;1301;3013087;-59
2023/04/12 10:04:07;;;;;;;3.40;2.60;;;;;;;13.41;83.04;98106.27;78054;1301;3069317;-62
2023/04/12 10:06:43;;;;;;;7.20;3.30;;;;;;;13.51;82.30;98108.29;78006;1299;3050900;-59
2023/04/12 10:09:11;;;;;;;4.40;3.80;;;;;;;13.35;82.24;98106.25;79460;1295;3012066;-60
2023/04/12 10:11:41;;;;;;;6.60;4.30;;;;;;;13.04;83.57;98103.33;78210;1295;3054046;-60
2023/04/12 10:14:07;;;;;;;5.50;3.90;;;;;;;12.79;83.99;98100.01;79284;1301;3013577;-60
2023/04/12 10:16:40;;;;;;;6.40;4.10;;;;;;;12.55;85.31;98102.48;78091;1300;3052876;-58
2023/04/12 10:19:08;;;;;;;3.40;1.80;;;;;;;12.51;85.75;98100.73;79310;1295;3013858;-58
2023/04/12 10:21:35;;;;;;;6.10;2.40;;;;;;;12.97;84.67;98098.16;79383;1295;3011812;-59
2023/04/12 10:24:05;;;;;;;3.90;2.80;;;;;;;13.36;82.28;98101.74;78227;1298;3049258;-59
2023/04/12 10:26:33;;;;;;;6.20;3.70;;;;;;;13.54;81.26;98098.02;79347;1295;3011693;-59
2023/04/12 10:29:32;;;;;;;5.70;4.30;;;;;;;13.41;81.02;98097.83;78117;1301;3028756;-58
2023/04/12 10:32:21;;;;;;;5.70;4.30;;;;;;;13.17;82.20;98097.02;78087;1294;3051680;-60
2023/04/12 10:34:55;;;;;;;8.70;4.60;;;;;;;12.85;83.05;98092.78;78089;1295;3053062;-58
2023/04/12 10:37:21;;;;;;;6.20;5.30;;;;;;;12.58;84.08;98096.96;79274;1298;3013255;-59
2023/04/12 10:39:52;;;;;;;3.40;2.20;;;;;;;12.42;85.19;98099.43;77978;1301;3050142;-59
2023/04/12 10:42:28;;;;;;;4.30;2.70;;;;;;;12.96;83.05;98097.39;79371;1295;3013304;-57
2023/04/12 10:45:22;;;;;;;5.30;4.00;;;;;;;13.44;80.90;98096.65;78134;1295;3053727;-58
2023/04/12 10:47:59;;;;;;;5.80;4.20;;;;;;;13.44;80.61;98100.30;78183;1299;3051564;-59
2023/04/12 10:50:29;;;;;;;6.10;5.00;;;;;;;13.27;81.52;98091.86;78104;1301;3051924;-58
2023/04/12 10:53:11;;;;;;;7.40;5.20;;;;;;;12.97;81.72;98086.41;78159;1300;3052956;-58
2023/04/12 10:55:38;;;;;;;9.10;5.90;;;;;;;12.77;82.86;98085.38;79362;1295;3011637;-56
2023/04/12 10:58:08;;;;;;;8.40;6.60;;;;;;;12.53;83.80;98079.00;78873;1295;3011591;-59
2023/04/12 11:00:57;;;;;;;5.10;3.20;;;;;;;12.27;85.28;98072.04;79437;1296;3013521;-58
2023/04/12 11:03:27;;;;;;;7.30;3.70;;;;;;;12.88;83.19;98069.33;78051;1299;3053491;-59
2023/04/12 11:05:58;;;;;;;9.00;5.30;;;;;;;13.38;81.22;98062.92;79355;1301;3011572;-58
2023/04/12 11:08:47;;;;;;;10.60;7.10;;;;;;;13.47;79.97;98063.51;78013;1295;3052958;-59
2023/04/12 11:11:24;;;;;;;9.70;7.30;;;;;;;13.23;80.34;98066.10;78136;1295;3069050;-57
2023/04/12 11:13:53;;;;;;;11.30;8.20;;;;;;;12.95;80.89;98062.65;79221;1295;3013220;-59
2023/04/12 11:16:23;;;;;;;14.90;9.00;;;;;;;12.61;82.38;98062.46;78114;1301;3050214;-59
2023/04/12 11:18:49;;;;;;;15.90;9.10;;;;;;;12.51;82.75;98063.36;79265;1296;3012928;-58
2023/04/12 11:21:16;;;;;;;7.30;4.10;;;;;;;12.47;82.97;98064.42;79170;1299;3011696;-59
2023/04/12 11:23:46;;;;;;;9.90;4.50;;;;;;;12.98;81.32;98067.50;77995;1301;3052968;-60
2023/04/12 11:26:19;;;;;;;12.00;6.50;;;;;;;13.31;79.51;98063.71;79401;1301;3013228;-59
2023/04/12 11:28:49;;;;;;;12.10;7.70;;;;;;;13.36;79.16;98073.25;78141;1295;3055951;-61
2023/04/12 11:31:19;;;;;;;10.60;7.30;;;;;;;13.09;79.21;98077.61;79416;1295;3013259;-60
2023/04/12 11:33:47;;;;;;;10.40;7.90;;;;;;;12.86;80.18;98072.98;78039;1298;3052944;-63
2023/04/12 11:36:13;;;;;;;13.50;8.40;;;;;;;12.70;80.97;98070.91;79380;1298;3020770;-59